首页
METAR-TAF:

METAR-TAF

机场 :

Edson, 艾伯塔, 加拿大

纬度: 53-35N, 经度: 116-28W, 海拔: 921米

当前天气观测

该预报发布于32分钟前的20:00 UTC
风速9节,风向西转西南,有时为17节阵风
温度 13°C
湿度 41%
气压 998 hPa
能見度: 14.5公里
天空无云

METAR: CYET 172000Z AUTO 25009G17KT 9SM CLR 13/M00 A2948 RMK SLP002 DENSITY ALT 4000FT

时间: 13:32 (20:32 UTC)


TAF: 丢失

超过4000个机场的气象观测和天气预报(METAR&TAF报告)。

可查询的气象台以黄色和红色小点在地图上表示。

将鼠标移到小点上方,可查看气象台名称。

然后点击查看天气观测和预报。

如需切换地图:点击带黑十字的绿色按钮放大地图;点击带横线的绿色按钮缩小地图;或者点击绿色箭头查看邻近地区的地图。


METAR-TAF: